Time;durP1;ratioP1;P1;durP2;ratioP2;P2;SDS_P1;SDS_P2;PMS_P1;PMS_P2;Temp;Humidity;BMP_temperature;BMP_pressure;BME280_temperature;BME280_humidity;BME280_pressure;Samples;Min_cycle;Max_cycle;Signal;HPM_P1;HPM_P2
2022/07/22 00:02:18;;;;;;;7.75;6.03;;;;;17.70;94644.00;;;;7390649;19;20141;-77
2022/07/22 00:04:45;;;;;;;7.05;6.22;;;;;17.60;94647.00;;;;7392005;19;20162;-75
2022/07/22 00:07:13;;;;;;;7.60;6.28;;;;;17.60;94640.00;;;;7389057;19;20132;-79
2022/07/22 00:09:48;;;;;;;7.10;5.85;;;;;17.50;94640.00;;;;7390027;19;20678;-79
2022/07/22 00:12:16;;;;;;;8.60;6.25;;;;;17.40;94640.00;;;;7391394;19;20618;-77
2022/07/22 00:14:43;;;;;;;8.82;7.05;;;;;17.40;94638.00;;;;7389881;19;20137;-77
2022/07/22 00:17:17;;;;;;;7.82;6.07;;;;;17.40;94651.00;;;;7388621;19;20603;-77
2022/07/22 00:19:45;;;;;;;10.05;7.05;;;;;17.50;94635.00;;;;7394773;19;20206;-78
2022/07/22 00:22:12;;;;;;;10.20;6.70;;;;;17.60;94644.00;;;;7398113;19;20121;-77
2022/07/22 00:24:47;;;;;;;7.78;6.57;;;;;17.60;94639.00;;;;7399118;19;20139;-77
2022/07/22 00:27:14;;;;;;;6.55;5.72;;;;;17.50;94638.00;;;;7393593;19;20170;-76
2022/07/22 00:29:42;;;;;;;6.75;6.13;;;;;17.40;94639.00;;;;7397747;19;20144;-76
2022/07/22 00:32:15;;;;;;;8.13;7.38;;;;;17.30;94645.00;;;;7397285;19;20492;-77
2022/07/22 00:34:43;;;;;;;7.47;6.75;;;;;17.40;94630.00;;;;7398270;19;20511;-77
2022/07/22 00:37:10;;;;;;;7.20;6.50;;;;;17.50;94631.00;;;;7396257;19;20148;-76
2022/07/22 00:39:44;;;;;;;7.13;6.45;;;;;17.40;94630.00;;;;7396515;19;20172;-77
2022/07/22 00:42:13;;;;;;;7.93;7.13;;;;;17.30;94635.00;;;;7397458;19;20137;-77
2022/07/22 00:44:41;;;;;;;9.60;7.78;;;;;17.20;94626.00;;;;7400369;19;20125;-77
2022/07/22 00:47:16;;;;;;;7.70;6.90;;;;;17.10;94626.00;;;;7394279;19;20129;-79
2022/07/22 00:49:44;;;;;;;8.90;7.53;;;;;17.10;94626.00;;;;7397569;19;20133;-77
2022/07/22 00:52:12;;;;;;;8.93;7.05;;;;;17.00;94614.00;;;;7397823;19;20145;-78
2022/07/22 00:54:47;;;;;;;9.80;7.13;;;;;16.90;94620.00;;;;7399667;19;20136;-77
2022/07/22 00:57:14;;;;;;;12.30;7.10;;;;;16.80;94627.00;;;;7395483;19;20516;-78
2022/07/22 00:59:44;;;;;;;8.20;7.25;;;;;16.80;94623.00;;;;7394167;19;20140;-78
2022/07/22 01:02:19;;;;;;;8.35;7.30;;;;;16.80;94622.00;;;;7396792;19;20177;-78
2022/07/22 01:04:48;;;;;;;8.48;7.00;;;;;16.70;94609.00;;;;7398102;19;20265;-77
2022/07/22 01:07:17;;;;;;;10.43;7.28;;;;;16.60;94608.00;;;;7393612;19;20128;-77
2022/07/22 01:09:51;;;;;;;8.93;7.30;;;;;16.50;94610.00;;;;7396070;19;20136;-75
2022/07/22 01:12:19;;;;;;;8.77;7.60;;;;;16.50;94611.00;;;;7394218;19;20176;-78
2022/07/22 01:14:46;;;;;;;8.88;7.97;;;;;16.40;94606.00;;;;7396317;19;20615;-78
2022/07/22 01:17:20;;;;;;;10.90;8.27;;;;;16.40;94614.00;;;;7397311;19;20136;-78
2022/07/22 01:19:49;;;;;;;9.32;7.88;;;;;16.50;94604.00;;;;7394901;19;20144;-78
2022/07/22 01:22:17;;;;;;;11.75;8.15;;;;;16.40;94607.00;;;;7396547;19;20133;-78
2022/07/22 01:24:56;;;;;;;9.90;7.97;;;;;16.40;94611.00;;;;7399758;19;20149;-78
2022/07/22 01:27:24;;;;;;;10.05;8.13;;;;;16.40;94607.00;;;;7392044;19;20166;-78
2022/07/22 01:29:58;;;;;;;11.25;8.00;;;;;16.40;94608.00;;;;7392355;19;20658;-77
2022/07/22 01:32:25;;;;;;;8.55;7.65;;;;;16.30;94598.00;;;;7395963;19;20760;-78
2022/07/22 01:34:53;;;;;;;9.23;7.53;;;;;16.30;94605.00;;;;7395975;19;20141;-78
2022/07/22 01:37:27;;;;;;;8.93;8.02;;;;;16.20;94602.00;;;;7393587;19;20606;-76
2022/07/22 01:39:54;;;;;;;10.40;8.13;;;;;16.40;94601.00;;;;7395511;19;20149;-77
2022/07/22 01:42:22;;;;;;;11.68;8.45;;;;;16.60;94607.00;;;;7395305;19;20133;-78
2022/07/22 01:44:59;;;;;;;8.73;7.80;;;;;16.70;94597.00;;;;7394830;19;20141;-78
2022/07/22 01:47:26;;;;;;;10.13;8.82;;;;;16.70;94603.00;;;;7392763;19;20208;-78
2022/07/22 01:49:54;;;;;;;9.05;7.30;;;;;16.50;94597.00;;;;7393750;19;20182;-77
2022/07/22 01:52:28;;;;;;;8.68;7.78;;;;;16.60;94594.00;;;;7395117;19;20151;-78
2022/07/22 01:54:55;;;;;;;11.65;8.63;;;;;16.50;94596.00;;;;7396795;19;20157;-77
2022/07/22 01:57:23;;;;;;;12.88;8.52;;;;;16.50;94596.00;;;;7393483;19;20155;-77
2022/07/22 02:00:14;;;;;;;9.02;8.20;;;;;16.50;94593.00;;;;7392012;19;20545;-76
2022/07/22 02:02:42;;;;;;;9.40;7.78;;;;;16.40;94597.00;;;;7397151;19;20619;-77
2022/07/22 02:05:17;;;;;;;9.52;8.40;;;;;16.60;94596.00;;;;7394865;19;20153;-79
2022/07/22 02:07:44;;;;;;;9.43;8.32;;;;;16.50;94591.00;;;;7393562;19;20522;-77
2022/07/22 02:10:12;;;;;;;10.82;9.05;;;;;16.50;94594.00;;;;7392987;19;20140;-77
2022/07/22 02:12:46;;;;;;;9.45;8.48;;;;;16.30;94592.00;;;;7394655;19;20196;-76
2022/07/22 02:15:13;;;;;;;9.93;8.98;;;;;16.30;94587.00;;;;7391027;19;20149;-78
2022/07/22 02:17:41;;;;;;;10.00;8.48;;;;;16.30;94586.00;;;;7392499;19;20145;-77
2022/07/22 02:20:16;;;;;;;8.88;8.07;;;;;16.50;94586.00;;;;7394053;19;20132;-78
2022/07/22 02:22:43;;;;;;;10.95;8.68;;;;;16.50;94584.00;;;;7395071;19;20149;-77
2022/07/22 02:25:11;;;;;;;9.63;8.63;;;;;16.60;94585.00;;;;7393237;19;20128;-78
2022/07/22 02:27:46;;;;;;;12.00;8.95;;;;;16.60;94583.00;;;;7392768;19;20145;-78
2022/07/22 02:30:14;;;;;;;11.30;8.75;;;;;16.60;94579.00;;;;7393772;19;20143;-78
2022/07/22 02:32:41;;;;;;;12.02;9.05;;;;;16.50;94587.00;;;;7395164;19;20141;-78
2022/07/22 02:35:15;;;;;;;12.45;9.02;;;;;16.40;94583.00;;;;7393677;19;20633;-78
2022/07/22 02:37:42;;;;;;;10.25;9.25;;;;;16.20;94576.00;;;;7393825;19;20489;-78
2022/07/22 02:40:10;;;;;;;11.75;8.38;;;;;16.20;94577.00;;;;7393000;19;20149;-78
2022/07/22 02:42:44;;;;;;;11.88;8.50;;;;;16.10;94567.00;;;;7394581;19;20166;-78
2022/07/22 02:45:12;;;;;;;10.93;9.18;;;;;16.00;94578.00;;;;7390701;19;20129;-78
2022/07/22 02:47:51;;;;;;;13.52;9.25;;;;;16.00;94581.00;;;;7389758;19;20666;-79
2022/07/22 02:50:25;;;;;;;10.95;9.15;;;;;16.10;94575.00;;;;7393902;19;20225;-78
2022/07/22 02:52:53;;;;;;;9.48;8.57;;;;;16.10;94573.00;;;;7395220;19;20583;-78
2022/07/22 02:55:21;;;;;;;10.65;9.55;;;;;16.10;94573.00;;;;7391707;19;20484;-77
2022/07/22 02:57:55;;;;;;;10.27;9.35;;;;;16.10;94576.00;;;;7393927;19;20599;-78
2022/07/22 03:00:28;;;;;;;11.02;9.75;;;;;16.00;94569.00;;;;7391542;19;20160;-78
2022/07/22 03:03:03;;;;;;;10.57;9.10;;;;;15.90;94578.00;;;;7391613;19;20144;-77
2022/07/22 03:05:31;;;;;;;10.70;9.60;;;;;15.90;94579.00;;;;7391327;19;20152;-76
2022/07/22 03:07:58;;;;;;;12.32;9.50;;;;;15.90;94581.00;;;;7391635;19;20232;-77
2022/07/22 03:10:33;;;;;;;11.40;9.88;;;;;15.90;94573.00;;;;7393801;19;20164;-79
2022/07/22 03:13:00;;;;;;;10.48;9.43;;;;;16.00;94574.00;;;;7389763;19;20846;-77
2022/07/22 03:15:28;;;;;;;10.65;9.40;;;;;15.90;94582.00;;;;7392041;19;20215;-77
2022/07/22 03:18:02;;;;;;;10.60;9.50;;;;;15.80;94580.00;;;;7391813;19;20148;-79
2022/07/22 03:20:30;;;;;;;10.80;9.38;;;;;16.10;94580.00;;;;7393129;19;20152;-77
2022/07/22 03:22:57;;;;;;;14.55;10.07;;;;;16.10;94569.00;;;;7394590;19;20501;-76
2022/07/22 03:25:34;;;;;;;10.73;9.70;;;;;16.10;94579.00;;;;7392767;19;20136;-78
2022/07/22 03:28:01;;;;;;;11.82;9.80;;;;;16.10;94579.00;;;;7390080;19;20153;-76
2022/07/22 03:30:28;;;;;;;12.45;9.40;;;;;16.10;94574.00;;;;7393655;19;20133;-76
2022/07/22 03:33:03;;;;;;;13.23;9.68;;;;;16.00;94575.00;;;;7390971;19;20132;-77
2022/07/22 03:35:31;;;;;;;11.18;9.63;;;;;15.90;94575.00;;;;7390268;19;20641;-76
2022/07/22 03:38:00;;;;;;;13.15;11.32;;;;;16.00;94579.00;;;;7390725;19;20144;-78
2022/07/22 03:40:34;;;;;;;10.70;9.63;;;;;16.00;94576.00;;;;7393705;19;20156;-78
2022/07/22 03:43:01;;;;;;;12.05;10.02;;;;;15.90;94578.00;;;;7389140;19;20193;-78
2022/07/22 03:45:29;;;;;;;12.50;11.10;;;;;15.90;94578.00;;;;7390691;19;20144;-78
2022/07/22 03:48:04;;;;;;;14.73;10.70;;;;;15.80;94577.00;;;;7391258;19;20132;-78
2022/07/22 03:50:31;;;;;;;14.57;11.65;;;;;15.80;94583.00;;;;7392079;19;20152;-78
2022/07/22 03:52:59;;;;;;;14.20;10.75;;;;;15.80;94581.00;;;;7392489;19;20150;-77
2022/07/22 03:55:33;;;;;;;13.43;11.10;;;;;15.80;94574.00;;;;7398885;19;20152;-78
2022/07/22 03:58:01;;;;;;;13.90;12.50;;;;;15.80;94574.00;;;;7399001;19;20650;-76
2022/07/22 04:00:29;;;;;;;17.48;12.57;;;;;15.80;94568.00;;;;7396439;19;20191;-77
2022/07/22 04:03:03;;;;;;;16.10;12.13;;;;;15.90;94574.00;;;;7397073;19;20140;-76
2022/07/22 04:05:31;;;;;;;15.18;11.15;;;;;15.90;94572.00;;;;7398989;19;20132;-76
2022/07/22 04:07:58;;;;;;;13.75;11.50;;;;;15.80;94576.00;;;;7397038;19;20140;-77
2022/07/22 04:10:35;;;;;;;12.15;10.70;;;;;15.80;94571.00;;;;7399428;19;20145;-78
2022/07/22 04:13:03;;;;;;;15.50;10.60;;;;;15.80;94570.00;;;;7397466;19;20121;-78
2022/07/22 04:15:30;;;;;;;12.50;10.90;;;;;15.80;94567.00;;;;7394452;19;20137;-76
2022/07/22 04:18:04;;;;;;;13.00;11.07;;;;;15.80;94566.00;;;;7395928;19;20164;-76
2022/07/22 04:20:31;;;;;;;15.18;10.70;;;;;15.80;94567.00;;;;7397229;19;20151;-78
2022/07/22 04:22:59;;;;;;;12.90;11.35;;;;;15.80;94561.00;;;;7398829;19;20157;-76
2022/07/22 04:25:33;;;;;;;12.93;11.63;;;;;15.80;94564.00;;;;7399194;19;20125;-76
2022/07/22 04:28:02;;;;;;;10.95;9.95;;;;;15.90;94562.00;;;;7395143;19;20162;-78
2022/07/22 04:30:29;;;;;;;12.18;10.85;;;;;15.90;94563.00;;;;7397194;19;20152;-76
2022/07/22 04:33:03;;;;;;;11.82;10.63;;;;;15.90;94555.00;;;;7400204;19;20129;-76
2022/07/22 04:35:30;;;;;;;12.05;10.75;;;;;16.00;94559.00;;;;7395922;19;20145;-78
2022/07/22 04:37:58;;;;;;;12.43;9.82;;;;;16.00;94565.00;;;;7397060;19;20169;-77
2022/07/22 04:40:32;;;;;;;15.20;10.88;;;;;16.10;94553.00;;;;7398229;19;20509;-78
2022/07/22 04:43:00;;;;;;;12.65;10.90;;;;;16.10;94553.00;;;;7397305;19;20140;-78
2022/07/22 04:45:27;;;;;;;13.88;11.52;;;;;16.20;94558.00;;;;7397380;19;20612;-76
2022/07/22 04:48:01;;;;;;;11.68;10.20;;;;;16.30;94547.00;;;;7394480;19;20144;-79
2022/07/22 04:50:29;;;;;;;12.35;10.57;;;;;16.40;94553.00;;;;7396685;19;20137;-77
2022/07/22 04:52:56;;;;;;;12.65;11.35;;;;;16.50;94558.00;;;;7399483;19;20148;-78
2022/07/22 04:55:32;;;;;;;14.25;12.40;;;;;16.70;94553.00;;;;7397653;19;20543;-77
2022/07/22 04:58:00;;;;;;;12.77;11.00;;;;;16.90;94551.00;;;;7395855;19;20153;-77
2022/07/22 05:00:27;;;;;;;14.10;10.57;;;;;17.00;94548.00;;;;7396111;19;20224;-77
2022/07/22 05:03:01;;;;;;;13.80;10.73;;;;;17.10;94551.00;;;;7394671;19;20140;-78
2022/07/22 05:05:29;;;;;;;12.55;10.60;;;;;17.20;94550.00;;;;7395977;19;20196;-76
2022/07/22 05:07:56;;;;;;;12.95;10.65;;;;;17.30;94550.00;;;;7394506;19;20631;-79
2022/07/22 05:10:30;;;;;;;12.98;11.75;;;;;17.40;94544.00;;;;7397444;19;20133;-78
2022/07/22 05:12:58;;;;;;;13.00;11.05;;;;;17.40;94543.00;;;;7394664;19;20620;-79
2022/07/22 05:15:26;;;;;;;12.40;11.10;;;;;17.60;94547.00;;;;7394324;19;20637;-79
2022/07/22 05:18:00;;;;;;;12.27;10.57;;;;;17.80;94542.00;;;;7396207;19;20151;-77
2022/07/22 05:20:28;;;;;;;11.43;10.30;;;;;17.90;94544.00;;;;7395281;19;20512;-78
2022/07/22 05:22:55;;;;;;;13.07;11.45;;;;;18.00;94539.00;;;;7396623;19;20165;-78
2022/07/22 05:25:29;;;;;;;11.35;10.30;;;;;18.20;94536.00;;;;7394812;19;20133;-78
2022/07/22 05:27:57;;;;;;;14.60;11.55;;;;;18.30;94542.00;;;;7393395;19;20600;-78
2022/07/22 05:30:24;;;;;;;11.30;9.90;;;;;18.30;94543.00;;;;7396733;19;20136;-78
2022/07/22 05:32:59;;;;;;;11.90;9.98;;;;;18.40;94541.00;;;;7396620;19;20144;-77
2022/07/22 05:35:27;;;;;;;13.93;10.30;;;;;18.50;94542.00;;;;7394321;19;20511;-79
2022/07/22 05:37:54;;;;;;;11.18;9.70;;;;;18.60;94537.00;;;;7394066;19;20611;-78
2022/07/22 05:40:28;;;;;;;12.02;9.20;;;;;18.80;94524.00;;;;7395520;19;20148;-77
2022/07/22 05:42:56;;;;;;;12.50;9.88;;;;;18.90;94528.00;;;;7397363;19;20152;-78
2022/07/22 05:45:24;;;;;;;14.75;9.50;;;;;19.00;94531.00;;;;7393018;19;20176;-79
2022/07/22 05:47:58;;;;;;;9.32;8.43;;;;;19.10;94535.00;;;;7392232;19;20165;-79
2022/07/22 05:50:26;;;;;;;10.02;9.00;;;;;19.10;94535.00;;;;7393870;19;20152;-78
2022/07/22 05:52:54;;;;;;;10.18;9.18;;;;;19.20;94535.00;;;;7397208;19;20145;-79
2022/07/22 05:55:28;;;;;;;11.13;9.30;;;;;19.30;94532.00;;;;7392866;19;20144;-78
2022/07/22 05:57:56;;;;;;;10.68;9.60;;;;;19.50;94530.00;;;;7393713;19;20158;-78
2022/07/22 06:00:23;;;;;;;10.70;9.60;;;;;19.50;94534.00;;;;7392298;19;20189;-77
2022/07/22 06:02:57;;;;;;;11.88;9.85;;;;;19.60;94532.00;;;;7394440;19;20180;-78
2022/07/22 06:05:31;;;;;;;12.82;9.40;;;;;19.80;94540.00;;;;7394610;19;20655;-78
2022/07/22 06:08:05;;;;;;;9.88;8.88;;;;;20.00;94534.00;;;;7392783;19;20619;-78
2022/07/22 06:10:33;;;;;;;11.52;8.60;;;;;20.20;94534.00;;;;7395677;19;20129;-79
2022/07/22 06:13:00;;;;;;;11.18;8.88;;;;;20.40;94539.00;;;;7391520;19;20164;-78
2022/07/22 06:15:36;;;;;;;10.63;9.55;;;;;20.50;94534.00;;;;7392226;19;20156;-76
2022/07/22 06:18:03;;;;;;;9.80;8.50;;;;;20.50;94539.00;;;;7391040;19;20133;-79
2022/07/22 06:20:31;;;;;;;12.15;9.48;;;;;20.80;94540.00;;;;7392734;19;20144;-77
2022/07/22 06:23:05;;;;;;;10.60;8.75;;;;;20.80;94533.00;;;;7391667;19;20143;-78
2022/07/22 06:25:33;;;;;;;12.18;8.75;;;;;20.90;94531.00;;;;7393788;19;20140;-78
2022/07/22 06:28:11;;;;;;;11.77;9.48;;;;;21.20;94537.00;;;;7393129;19;20159;-77
2022/07/22 06:30:45;;;;;;;11.48;9.13;;;;;21.20;94538.00;;;;7395223;19;20156;-79
2022/07/22 06:33:13;;;;;;;10.90;8.68;;;;;21.40;94536.00;;;;7393444;19;20611;-79
2022/07/22 06:35:41;;;;;;;11.38;8.40;;;;;21.50;94534.00;;;;7392334;19;20153;-78
2022/07/22 06:38:15;;;;;;;11.68;8.85;;;;;21.60;94529.00;;;;7394023;19;20152;-78
2022/07/22 06:40:58;;;;;;;9.55;8.27;;;;;21.80;94528.00;;;;7395486;19;20125;-78
2022/07/22 06:43:32;;;;;;;11.30;8.02;;;;;21.90;94523.00;;;;7391934;19;20603;-78
2022/07/22 06:46:00;;;;;;;9.43;8.52;;;;;21.80;94533.00;;;;7394117;19;20176;-77
2022/07/22 06:48:28;;;;;;;8.98;7.80;;;;;21.80;94523.00;;;;7393892;19;20133;-77
2022/07/22 06:51:02;;;;;;;12.18;8.10;;;;;21.80;94529.00;;;;7391604;19;20578;-77
2022/07/22 06:53:30;;;;;;;8.05;7.22;;;;;21.90;94522.00;;;;7391696;19;20156;-76
2022/07/22 06:55:57;;;;;;;8.60;7.70;;;;;22.00;94522.00;;;;7393889;19;20594;-77
2022/07/22 06:58:35;;;;;;;9.75;7.88;;;;;22.10;94518.00;;;;7391767;19;20639;-79
2022/07/22 07:01:10;;;;;;;8.07;7.32;;;;;22.30;94532.00;;;;7388370;19;20152;-77
2022/07/22 07:03:51;;;;;;;8.73;7.68;;;;;22.30;94522.00;;;;7392478;19;20133;-77
2022/07/22 07:06:19;;;;;;;10.18;7.53;;;;;22.50;94517.00;;;;7391939;19;20174;-78
2022/07/22 07:08:53;;;;;;;9.88;8.18;;;;;22.50;94513.00;;;;7384774;19;20183;-77
2022/07/22 07:11:22;;;;;;;8.65;7.35;;;;;22.70;94506.00;;;;7394369;19;20278;-78
2022/07/22 07:13:49;;;;;;;9.50;7.20;;;;;22.40;94503.00;;;;7393986;19;20136;-78
2022/07/22 07:16:23;;;;;;;8.73;7.78;;;;;22.30;94510.00;;;;7394632;19;20176;-78
2022/07/22 07:18:51;;;;;;;8.98;7.70;;;;;22.60;94507.00;;;;7397751;19;20627;-78
2022/07/22 07:21:19;;;;;;;9.70;7.60;;;;;22.90;94507.00;;;;7394050;19;20145;-79
2022/07/22 07:23:53;;;;;;;9.70;7.43;;;;;23.10;94503.00;;;;7394558;19;20136;-77
2022/07/22 07:26:22;;;;;;;8.95;7.35;;;;;23.00;94503.00;;;;7392844;19;20157;-79
2022/07/22 07:28:50;;;;;;;9.40;7.18;;;;;22.80;94499.00;;;;7396240;19;20177;-78
2022/07/22 07:31:25;;;;;;;8.68;7.10;;;;;22.80;94501.00;;;;7401287;19;20173;-78
2022/07/22 07:33:53;;;;;;;8.00;7.30;;;;;23.00;94501.00;;;;7397615;19;20509;-78
2022/07/22 07:36:21;;;;;;;8.93;7.63;;;;;23.20;94495.00;;;;7398446;19;20507;-77
2022/07/22 07:38:55;;;;;;;8.30;7.47;;;;;23.20;94499.00;;;;7401724;19;20132;-78
2022/07/22 07:41:23;;;;;;;7.55;6.85;;;;;23.60;94497.00;;;;7397749;19;20149;-78
2022/07/22 07:43:51;;;;;;;8.18;7.38;;;;;23.60;94502.00;;;;7394814;19;20121;-77
2022/07/22 07:46:25;;;;;;;9.77;7.25;;;;;23.70;94502.00;;;;7398453;19;20999;-76
2022/07/22 07:48:53;;;;;;;7.55;6.75;;;;;23.90;94505.00;;;;7397664;19;20193;-77
2022/07/22 07:51:21;;;;;;;8.90;7.13;;;;;24.00;94505.00;;;;7399330;19;20145;-79
2022/07/22 07:53:56;;;;;;;8.52;7.18;;;;;24.00;94497.00;;;;7397300;19;20621;-78
2022/07/22 07:56:24;;;;;;;9.52;7.15;;;;;23.70;94502.00;;;;7399150;19;20137;-78
2022/07/22 07:58:51;;;;;;;9.13;7.60;;;;;23.90;94501.00;;;;7399855;19;20229;-78
2022/07/22 08:01:52;;;;;;;10.65;6.72;;;;;23.80;94500.00;;;;7393281;19;20206;-78
2022/07/22 08:04:26;;;;;;;9.38;6.53;;;;;24.20;94497.00;;;;7398715;19;20200;-75
2022/07/22 08:07:06;;;;;;;10.65;7.47;;;;;24.50;94497.00;;;;7399129;19;20148;-78
2022/07/22 08:09:37;;;;;;;7.50;6.75;;;;;24.30;94495.00;;;;7394393;19;20141;-77
2022/07/22 08:12:12;;;;;;;9.88;7.38;;;;;24.60;94499.00;;;;7397279;19;20155;-75
2022/07/22 08:14:39;;;;;;;10.40;7.38;;;;;24.90;94489.00;;;;7401119;19;20157;-76
2022/07/22 08:17:07;;;;;;;9.60;6.88;;;;;25.00;94486.00;;;;7397280;19;20159;-77
2022/07/22 08:19:41;;;;;;;12.63;7.30;;;;;24.90;94487.00;;;;7397383;19;20136;-77
2022/07/22 08:22:11;;;;;;;9.70;6.65;;;;;25.10;94487.00;;;;7396640;19;20153;-76
2022/07/22 08:24:39;;;;;;;7.53;6.80;;;;;25.30;94479.00;;;;7399032;19;20642;-78
2022/07/22 08:27:13;;;;;;;7.82;6.95;;;;;25.30;94483.00;;;;7397664;19;20871;-77
2022/07/22 08:29:40;;;;;;;8.57;7.15;;;;;25.50;94486.00;;;;7395740;19;20125;-78
2022/07/22 08:32:08;;;;;;;7.75;7.00;;;;;25.80;94483.00;;;;7396548;19;20185;-78
2022/07/22 08:34:42;;;;;;;7.05;6.35;;;;;25.60;94480.00;;;;7396748;19;20151;-80
2022/07/22 08:37:10;;;;;;;8.45;6.32;;;;;25.80;94481.00;;;;7397163;19;20506;-78
2022/07/22 08:39:38;;;;;;;7.30;6.60;;;;;26.00;94478.00;;;;7395321;19;20148;-79
2022/07/22 08:42:13;;;;;;;7.07;5.88;;;;;26.00;94478.00;;;;7397089;19;20128;-79
2022/07/22 08:44:41;;;;;;;10.65;6.50;;;;;25.70;94477.00;;;;7397902;19;20136;-79
2022/07/22 08:47:09;;;;;;;10.23;6.57;;;;;25.70;94477.00;;;;7397668;19;20148;-77
2022/07/22 08:50:04;;;;;;;11.32;6.35;;;;;26.10;94477.00;;;;7396255;19;20204;-78
2022/07/22 08:52:35;;;;;;;6.38;5.78;;;;;26.00;94475.00;;;;7395486;19;20233;-78
2022/07/22 08:55:10;;;;;;;7.82;6.25;;;;;25.80;94475.00;;;;7395614;19;20140;-77
2022/07/22 08:57:37;;;;;;;8.40;6.50;;;;;26.00;94473.00;;;;7393373;19;20180;-80
2022/07/22 09:00:14;;;;;;;7.15;6.47;;;;;26.20;94474.00;;;;7394772;19;20236;-77
2022/07/22 09:02:55;;;;;;;9.45;6.53;;;;;26.50;94465.00;;;;7396801;19;20504;-80
2022/07/22 09:05:22;;;;;;;6.30;5.70;;;;;26.80;94471.00;;;;7396923;19;20137;-79
2022/07/22 09:08:13;;;;;;;7.50;6.40;;;;;26.60;94466.00;;;;7394608;19;20166;-79
2022/07/22 09:10:41;;;;;;;9.57;6.13;;;;;26.80;94454.00;;;;7395366;19;20165;-77
2022/07/22 09:13:16;;;;;;;6.25;5.65;;;;;27.00;94461.00;;;;7397099;19;20547;-78
2022/07/22 09:15:53;;;;;;;7.43;6.05;;;;;27.10;94460.00;;;;7393985;19;20519;-80
2022/07/22 09:18:27;;;;;;;7.32;6.20;;;;;26.60;94461.00;;;;7394220;19;20156;-78
2022/07/22 09:20:59;;;;;;;7.63;5.70;;;;;26.80;94463.00;;;;7395496;19;20208;-78
2022/07/22 09:23:38;;;;;;;6.05;5.45;;;;;27.00;94463.00;;;;7396290;19;20133;-78
2022/07/22 09:26:38;;;;;;;6.18;5.63;;;;;27.40;94459.00;;;;7396846;19;20153;-78
2022/07/22 09:29:07;;;;;;;6.43;5.60;;;;;27.80;94465.00;;;;7394223;19;20140;-76
2022/07/22 09:35:25;;;;;;;6.68;5.97;;;;;27.80;94459.00;;;;7389096;19;20129;-76
2022/07/22 09:38:03;;;;;;;9.75;6.35;;;;;27.20;94461.00;;;;7394214;19;20606;-78
2022/07/22 09:40:35;;;;;;;11.85;6.72;;;;;27.30;94460.00;;;;7395735;19;20217;-79
2022/07/22 09:43:12;;;;;;;7.93;6.25;;;;;27.20;94460.00;;;;7396943;19;20599;-77
2022/07/22 09:45:49;;;;;;;6.55;5.88;;;;;27.20;94453.00;;;;7393127;19;20674;-78
2022/07/22 09:48:24;;;;;;;9.40;5.90;;;;;27.30;94456.00;;;;7392505;19;20129;-79
2022/07/22 09:50:55;;;;;;;8.38;6.28;;;;;28.00;94457.00;;;;7394085;19;20663;-77
2022/07/22 09:53:27;;;;;;;7.47;5.70;;;;;28.40;94445.00;;;;7389175;19;20133;-78
2022/07/22 09:56:03;;;;;;;8.13;5.57;;;;;28.30;94449.00;;;;7392882;19;20144;-80
2022/07/22 09:58:32;;;;;;;8.73;6.07;;;;;28.70;94445.00;;;;7394210;19;20145;-77
2022/07/22 10:01:05;;;;;;;7.95;5.80;;;;;28.90;94438.00;;;;7394057;19;20160;-79
2022/07/22 10:03:50;;;;;;;8.65;6.68;;;;;29.00;94443.00;;;;7393007;19;20140;-76
2022/07/22 10:06:18;;;;;;;6.75;6.13;;;;;28.80;94437.00;;;;7393601;19;20145;-77
2022/07/22 10:09:00;;;;;;;8.43;6.07;;;;;28.10;94433.00;;;;7393477;19;20133;-78
2022/07/22 10:11:38;;;;;;;7.25;5.85;;;;;28.80;94435.00;;;;7392589;19;20247;-78
2022/07/22 10:14:17;;;;;;;6.65;5.95;;;;;28.90;94437.00;;;;7393299;19;20199;-79
2022/07/22 10:16:49;;;;;;;7.75;6.75;;;;;28.90;94423.00;;;;7393588;19;20137;-78
2022/07/22 10:19:26;;;;;;;9.07;6.10;;;;;29.10;94424.00;;;;7390341;19;20176;-78
2022/07/22 10:21:54;;;;;;;6.80;6.10;;;;;29.10;94425.00;;;;7392563;19;20125;-78
2022/07/22 10:24:25;;;;;;;7.95;5.90;;;;;29.00;94415.00;;;;7391012;19;20224;-79
2022/07/22 10:27:01;;;;;;;6.45;5.85;;;;;29.10;94413.00;;;;7394477;19;20563;-78
2022/07/22 10:29:30;;;;;;;6.68;5.85;;;;;28.90;94421.00;;;;7388669;19;20567;-78
2022/07/22 10:32:16;;;;;;;6.40;5.80;;;;;29.30;94413.00;;;;7393358;19;20153;-77
2022/07/22 10:35:03;;;;;;;7.20;5.80;;;;;29.70;94412.00;;;;7395591;19;20125;-78
2022/07/22 10:37:34;;;;;;;6.30;5.80;;;;;29.60;94418.00;;;;7391029;19;20152;-75
2022/07/22 10:40:08;;;;;;;7.68;5.80;;;;;28.60;94418.00;;;;7390805;19;20152;-77
2022/07/22 10:43:00;;;;;;;5.65;5.15;;;;;28.80;94411.00;;;;7394264;19;20137;-77
2022/07/22 10:45:33;;;;;;;8.10;5.82;;;;;29.20;94413.00;;;;7390618;19;20133;-78
2022/07/22 10:48:05;;;;;;;7.95;5.65;;;;;29.80;94419.00;;;;7393373;19;20145;-79
2022/07/22 10:50:35;;;;;;;5.88;5.38;;;;;30.00;94412.00;;;;7391437;19;20149;-78
2022/07/22 10:53:15;;;;;;;6.07;5.57;;;;;29.60;94406.00;;;;7392738;19;20186;-78
2022/07/22 10:56:05;;;;;;;5.53;5.00;;;;;29.80;94412.00;;;;7390377;19;20129;-78
2022/07/22 10:58:42;;;;;;;8.30;5.97;;;;;30.40;94399.00;;;;7390955;19;20169;-79
2022/07/22 11:01:19;;;;;;;9.43;5.47;;;;;30.00;94399.00;;;;7392059;19;20172;-77
2022/07/22 11:03:53;;;;;;;7.90;5.70;;;;;30.20;94402.00;;;;7390315;19;20200;-77
2022/07/22 11:06:28;;;;;;;7.82;5.95;;;;;30.50;94407.00;;;;7390908;19;20642;-77
2022/07/22 11:09:10;;;;;;;6.13;5.63;;;;;30.70;94394.00;;;;7391125;19;20137;-77
2022/07/22 11:11:46;;;;;;;7.03;6.43;;;;;31.10;94386.00;;;;7389454;19;20143;-79
2022/07/22 11:14:35;;;;;;;9.07;5.43;;;;;31.10;94390.00;;;;7391193;19;20132;-79
2022/07/22 11:17:13;;;;;;;8.18;6.20;;;;;30.80;94393.00;;;;7392763;19;20650;-78
2022/07/22 11:19:51;;;;;;;9.07;6.13;;;;;29.70;94401.00;;;;7389380;19;20495;-79
2022/07/22 11:22:19;;;;;;;6.70;5.68;;;;;29.50;94388.00;;;;7392050;19;20124;-78
2022/07/22 11:24:49;;;;;;;7.90;6.03;;;;;30.10;94382.00;;;;7390666;19;20156;-77
2022/07/22 11:27:25;;;;;;;6.75;5.80;;;;;29.80;94381.00;;;;7390104;19;20152;-78
2022/07/22 11:29:54;;;;;;;7.68;6.28;;;;;30.20;94371.00;;;;7388637;19;20132;-77
2022/07/22 11:32:27;;;;;;;8.30;5.85;;;;;30.80;94363.00;;;;7390199;19;20140;-76
2022/07/22 11:35:01;;;;;;;8.57;5.75;;;;;30.90;94367.00;;;;7391282;19;20148;-77
2022/07/22 11:37:29;;;;;;;8.27;6.05;;;;;31.20;94357.00;;;;7390182;19;20148;-77
2022/07/22 11:40:05;;;;;;;6.47;5.68;;;;;31.30;94359.00;;;;7388096;19;20132;-76
2022/07/22 11:42:42;;;;;;;6.82;6.13;;;;;32.00;94352.00;;;;7392229;19;20157;-78
2022/07/22 11:45:10;;;;;;;6.00;5.40;;;;;31.80;94343.00;;;;7392403;19;20136;-77
2022/07/22 11:47:48;;;;;;;7.22;5.68;;;;;31.40;94343.00;;;;7390128;19;20276;-79
2022/07/22 11:50:40;;;;;;;6.20;5.60;;;;;31.30;94340.00;;;;7388046;19;20606;-78
2022/07/22 11:53:08;;;;;;;5.97;5.30;;;;;31.80;94336.00;;;;7391406;19;20173;-77
2022/07/22 11:55:43;;;;;;;7.32;6.07;;;;;31.90;94338.00;;;;7380490;19;20145;-77
2022/07/22 11:58:12;;;;;;;10.85;6.10;;;;;31.80;94347.00;;;;7384772;19;20204;-77
2022/07/22 12:00:39;;;;;;;7.78;5.32;;;;;30.90;94338.00;;;;7383963;19;20634;-79
2022/07/22 12:03:14;;;;;;;5.78;5.28;;;;;30.60;94338.00;;;;7386558;19;20601;-79
2022/07/22 12:05:42;;;;;;;6.20;5.60;;;;;31.00;94337.00;;;;7383867;19;20594;-79
2022/07/22 12:08:10;;;;;;;6.63;5.35;;;;;31.30;94329.00;;;;7386092;19;20135;-78
2022/07/22 12:10:45;;;;;;;6.30;5.70;;;;;31.50;94335.00;;;;7382955;19;20144;-79
2022/07/22 12:13:13;;;;;;;6.20;5.60;;;;;31.50;94334.00;;;;7386020;19;20154;-78
2022/07/22 12:15:41;;;;;;;6.05;5.38;;;;;31.60;94334.00;;;;7389175;19;20149;-78
2022/07/22 12:18:24;;;;;;;7.57;6.78;;;;;31.70;94337.00;;;;7390719;19;20147;-77
2022/07/22 12:20:53;;;;;;;6.18;5.15;;;;;32.20;94328.00;;;;7392277;19;20229;-79
2022/07/22 12:23:30;;;;;;;8.48;5.47;;;;;32.10;94324.00;;;;7389031;19;21605;-77
2022/07/22 12:26:00;;;;;;;8.07;6.00;;;;;32.70;94324.00;;;;7389510;19;20151;-77
2022/07/22 12:28:34;;;;;;;8.80;5.53;;;;;32.00;94319.00;;;;7391533;19;20212;-79
2022/07/22 12:31:02;;;;;;;5.50;5.00;;;;;32.20;94318.00;;;;7390729;19;20155;-78
2022/07/22 12:33:30;;;;;;;7.93;5.28;;;;;32.50;94311.00;;;;7394560;19;20511;-79
2022/07/22 12:36:07;;;;;;;5.75;5.07;;;;;32.40;94318.00;;;;7391147;19;20135;-78
2022/07/22 12:38:36;;;;;;;5.32;4.82;;;;;32.10;94311.00;;;;7391288;19;20155;-78
2022/07/22 12:41:29;;;;;;;5.55;4.82;;;;;32.00;94310.00;;;;7393908;19;20132;-79